^^
MeteoGriva-Weather Station Historical Data
 
Daily Summary for April 09, 2020 Units:  Metric    English   Both
Daily Weekly Monthly Yearly Custom
  Current: High: Low: Average:
Temperature: 19.3 °C 20.2 °C 9.5 °C 14.4 °C
Dew Point: 5.8 °C 7.8 °C 0.8 °C 4.1 °C
Humidity: 41.2% 59.7% 41.2% 51%
Wind Speed: 7.6km/h 10.3km/h 0km/h 1.2km/h
Wind Gust: 16.3km/h 20.1km/h - -
WindSouth - - SE
Pressure: 1014.9 hPa 1021.0 hPa 1014.6 hPa -
Precipitation: 0.0 mm      
Historical Graphs
 
 
Tabular Data for April 09, 2020
Time Temperature Dew Point Pressure Wind Wind Speed Wind Gust Humidity Rainfall Rate (Hourly) solar
00:04 10.5 °C 3 °C 1021.0 hPa Calm     59.7% 0.0 mm 0 W/m2
00:09 10.5 °C 2.6 °C 1021.0 hPa Calm     57.9% 0.0 mm 0 W/m2
00:14 10.6 °C 2.4 °C 1021.0 hPa Calm   4 km/h 57% 0.0 mm 0 W/m2
00:19 10.7 °C 2.3 °C 1021.0 hPa Calm   4 km/h 56.1% 0.0 mm 0 W/m2
00:24 11 °C 2.3 °C 1021.0 hPa Calm     55% 0.0 mm 0 W/m2
00:29 11.1 °C 2.4 °C 1021.0 hPa Calm     55% 0.0 mm 0 W/m2
00:34 11.1 °C 2.2 °C 1021.0 hPa Calm     54.3% 0.0 mm 0 W/m2
00:39 11.1 °C 2.1 °C 1021.0 hPa Calm     54% 0.0 mm 0 W/m2
00:44 11.1 °C 2 °C 1021.0 hPa Calm     53.9% 0.0 mm 0 W/m2
00:49 11 °C 2 °C 1021.0 hPa Calm     54% 0.0 mm 0 W/m2
00:54 11 °C 2.1 °C 1020.7 hPa Calm     54.2% 0.0 mm 0 W/m2
00:59 11 °C 2.1 °C 1021.0 hPa Calm     54.2% 0.0 mm 0 W/m2
01:04 10.9 °C 2.2 °C 1021.0 hPa Calm     55% 0.0 mm 0 W/m2
01:09 10.8 °C 2.2 °C 1021.0 hPa Calm     55.3% 0.0 mm 0 W/m2
01:14 10.8 °C 2.4 °C 1020.7 hPa Calm     56% 0.0 mm 0 W/m2
01:19 10.8 °C 2.4 °C 1021.0 hPa Calm     56% 0.0 mm 0 W/m2
01:24 10.9 °C 2.5 °C 1021.0 hPa Calm     56% 0.0 mm 0 W/m2
01:29 11 °C 2.4 °C 1020.7 hPa Calm     55.4% 0.0 mm 0 W/m2
01:34 11.1 °C 2.3 °C 1020.7 hPa Calm     55% 0.0 mm 0 W/m2
01:39 11.1 °C 2.3 °C 1020.7 hPa Calm     54.7% 0.0 mm 0 W/m2
01:44 11.4 °C 2 °C 1020.7 hPa Calm     52.2% 0.0 mm 0 W/m2
01:49 11.6 °C 2.3 °C 1020.7 hPa Calm     52.9% 0.0 mm 0 W/m2
01:54 11.5 °C 2.8 °C 1020.7 hPa Calm     55% 0.0 mm 0 W/m2
01:59 11.5 °C 2.8 °C 1020.7 hPa Calm     55.3% 0.0 mm 0 W/m2
02:04 11.3 °C 2.6 °C 1020.7 hPa Calm     54.9% 0.0 mm 0 W/m2
02:09 11.3 °C 2.6 °C 1020.7 hPa Calm     55.1% 0.0 mm 0 W/m2
02:14 11.3 °C 2.5 °C 1020.7 hPa Calm     54.7% 0.0 mm 0 W/m2
02:19 11.3 °C 2.4 °C 1020.7 hPa Calm     54.5% 0.0 mm 0 W/m2
02:24 11.1 °C 2.6 °C 1020.3 hPa Calm     55.9% 0.0 mm 0 W/m2
02:29 11 °C 2.5 °C 1020.3 hPa Calm     55.7% 0.0 mm 0 W/m2
02:34 10.9 °C 2.6 °C 1020.3 hPa Calm     56.2% 0.0 mm 0 W/m2
02:39 10.9 °C 2.6 °C 1020.3 hPa Calm     56.4% 0.0 mm 0 W/m2
02:44 10.9 °C 2.5 °C 1020.3 hPa Calm     56% 0.0 mm 0 W/m2
02:49 11 °C 2.6 °C 1020.3 hPa Calm     56% 0.0 mm 0 W/m2
02:54 10.9 °C 2.3 °C 1020.3 hPa Calm     55.2% 0.0 mm 0 W/m2
02:59 10.9 °C 2.5 °C 1020.0 hPa Calm     56% 0.0 mm 0 W/m2
03:04 10.9 °C 2.5 °C 1020.0 hPa Calm     56% 0.0 mm 0 W/m2
03:09 10.9 °C 2.4 °C 1020.0 hPa Calm     55.6% 0.0 mm 0 W/m2
03:14 10.9 °C 2.4 °C 1019.6 hPa Calm     55.6% 0.0 mm 0 W/m2
03:19 10.9 °C 2.5 °C 1019.6 hPa Calm     56% 0.0 mm 0 W/m2
03:24 10.8 °C 2.6 °C 1019.6 hPa Calm     57.2% 0.0 mm 0 W/m2
03:29 10.8 °C 2.4 °C 1019.6 hPa Calm     56% 0.0 mm 0 W/m2
03:34 10.8 °C 2.4 °C 1019.6 hPa Calm     56.1% 0.0 mm 0 W/m2
03:39 10.8 °C 2.2 °C 1019.6 hPa Calm     55.4% 0.0 mm 0 W/m2
03:44 10.6 °C 2.5 °C 1019.6 hPa Calm     57.2% 0.0 mm 0 W/m2
03:49 10.2 °C 2.1 °C 1019.6 hPa Calm     56.8% 0.0 mm 0 W/m2
03:54 10.3 °C 1.4 °C 1019.3 hPa Calm     53.7% 0.0 mm 0 W/m2
03:59 10.5 °C 1.5 °C 1019.3 hPa Calm     53.9% 0.0 mm 0 W/m2
04:04 10.7 °C 2 °C 1019.3 hPa Calm     55% 0.0 mm 0 W/m2
04:09 10.9 °C 2.4 °C 1019.3 hPa Calm     55.6% 0.0 mm 0 W/m2
04:14 10.9 °C 2.3 °C 1019.3 hPa Calm     55.1% 0.0 mm 0 W/m2
04:19 10.8 °C 2.5 °C 1019.6 hPa Calm     56.4% 0.0 mm 0 W/m2
04:24 10.5 °C 2.7 °C 1019.3 hPa Calm     58.4% 0.0 mm 0 W/m2
04:29 9.9 °C 2 °C 1019.3 hPa Calm     57.9% 0.0 mm 0 W/m2
04:34 9.9 °C 1.7 °C 1019.0 hPa Calm     56.6% 0.0 mm 0 W/m2
04:39 10.1 °C 1.6 °C 1019.0 hPa Calm     55.6% 0.0 mm 0 W/m2
04:44 10.4 °C 1.9 °C 1019.0 hPa Calm     55.7% 0.0 mm 0 W/m2
04:49 10.8 °C 2.6 °C 1019.0 hPa Calm     56.9% 0.0 mm 0 W/m2
04:54 10.8 °C 2.5 °C 1019.0 hPa Calm     56.4% 0.0 mm 0 W/m2
04:59 10.7 °C 2.3 °C 1019.0 hPa Calm     56.2% 0.0 mm 0 W/m2
05:04 10.7 °C 2.3 °C 1019.0 hPa Calm     56.2% 0.0 mm 0 W/m2
05:09 10.8 °C 2.1 °C 1019.0 hPa Calm     55.1% 0.0 mm 0 W/m2
05:14 10.8 °C 2.2 °C 1019.0 hPa Calm     55.6% 0.0 mm 0 W/m2
05:19 10.7 °C 2.5 °C 1019.0 hPa Calm     57.1% 0.0 mm 0 W/m2
05:24 10.6 °C 2.6 °C 1019.0 hPa Calm     57.7% 0.0 mm 0 W/m2
05:29 10.3 °C 2.2 °C 1019.0 hPa Calm     57% 0.0 mm 0 W/m2
05:34 10.3 °C 2.3 °C 1019.0 hPa Calm     57.6% 0.0 mm 0 W/m2
05:39 10.2 °C 2.4 °C 1019.0 hPa Calm     58.7% 0.0 mm 0 W/m2
05:44 10 °C 2.4 °C 1019.0 hPa Calm     59% 0.0 mm 0 W/m2
05:49 9.8 °C 2.1 °C 1019.0 hPa Calm     58.6% 0.0 mm 0 W/m2
05:54 9.8 °C 2.2 °C 1019.0 hPa Calm     59.1% 0.0 mm 0 W/m2
05:59 9.7 °C 1.8 °C 1018.6 hPa Calm     57.9% 0.0 mm 0 W/m2
06:04 9.8 °C 1.6 °C 1018.6 hPa Calm     56.9% 0.0 mm 0 W/m2
06:09 10.2 °C 1.8 °C 1019.0 hPa Calm     56% 0.0 mm 0 W/m2
06:14 10.2 °C 2.2 °C 1019.0 hPa Calm     57.6% 0.0 mm 0 W/m2
06:19 10.1 °C 2.2 °C 1019.0 hPa Calm     57.8% 0.0 mm 0 W/m2
06:24 10 °C 2.2 °C 1019.0 hPa Calm     58.1% 0.0 mm 0 W/m2
06:29 9.6 °C 1.8 °C 1019.0 hPa Calm     58.1% 0.0 mm 0 W/m2
06:34 9.5 °C 1.8 °C 1019.0 hPa Calm     58.8% 0.0 mm 0 W/m2
06:39 9.5 °C 1.6 °C 1019.0 hPa Calm     58% 0.0 mm 0 W/m2
06:44 9.5 °C 1.6 °C 1019.0 hPa Calm     58% 0.0 mm 0 W/m2
06:49 9.5 °C 1.6 °C 1019.0 hPa Calm     57.9% 0.0 mm 0 W/m2
06:54 9.6 °C 1.3 °C 1019.3 hPa Calm     56.1% 0.0 mm 0 W/m2
06:59 9.6 °C 0.9 °C 1019.3 hPa Calm     54.8% 0.0 mm 0 W/m2
07:04 9.6 °C 1 °C 1019.3 hPa Calm     55.2% 0.0 mm 5 W/m2
07:09 9.5 °C 0.9 °C 1019.3 hPa Calm     54.8% 0.0 mm 16 W/m2
07:14 9.5 °C 0.8 °C 1019.3 hPa Calm     54.6% 0.0 mm 29 W/m2
07:19 9.6 °C 0.9 °C 1019.3 hPa Calm     54.7% 0.0 mm 44 W/m2
07:24 9.8 °C 0.8 °C 1019.3 hPa Calm     53.8% 0.0 mm 62 W/m2
07:29 11.1 °C 1.7 °C 1019.3 hPa Calm     52.4% 0.0 mm 75 W/m2
07:34 11.2 °C 1.4 °C 1019.3 hPa Calm     51.2% 0.0 mm 87 W/m2
07:39 11.3 °C 1.5 °C 1019.3 hPa Calm     51.1% 0.0 mm 94 W/m2
07:44 11.5 °C 1.7 °C 1019.3 hPa Calm     51% 0.0 mm 100 W/m2
07:49 12.9 °C 2.7 °C 1019.3 hPa Calm     50.1% 0.0 mm 103 W/m2
07:54 13.1 °C 1.9 °C 1019.3 hPa Calm     46.7% 0.0 mm 104 W/m2
07:59 13.4 °C 2.1 °C 1019.3 hPa Calm     46.3% 0.0 mm 105 W/m2
08:04 13.6 °C 2.6 °C 1019.6 hPa Calm     47.7% 0.0 mm 105 W/m2
08:09 13.8 °C 3.3 °C 1019.6 hPa Calm     49.3% 0.0 mm 104 W/m2
08:14 13.9 °C 2.9 °C 1020.0 hPa Calm     47.3% 0.0 mm 103 W/m2
08:19 14.1 °C 3.5 °C 1019.6 hPa Calm     48.7% 0.0 mm 103 W/m2
08:24 14.2 °C 4 °C 1019.6 hPa Calm     50.4% 0.0 mm 102 W/m2
08:29 14.6 °C 4 °C 1019.6 hPa Calm     49.3% 0.0 mm 104 W/m2
08:34 14.6 °C 4.4 °C 1020.0 hPa Calm     50.3% 0.0 mm 108 W/m2
08:39 14.6 °C 4.6 °C 1020.0 hPa Calm     51% 0.0 mm 113 W/m2
08:44 14.5 °C 4.5 °C 1020.0 hPa Calm     51.1% 0.0 mm 117 W/m2
08:49 14.7 °C 4.7 °C 1020.0 hPa Calm     51% 0.0 mm 123 W/m2
08:54 14.7 °C 4.6 °C 1020.0 hPa Calm     50.7% 0.0 mm 128 W/m2
08:59 14.8 °C 4.1 °C 1020.3 hPa Calm     48.7% 0.0 mm 134 W/m2
09:04 15 °C 3.8 °C 1020.0 hPa Calm     47% 0.0 mm 142 W/m2
09:09 16 °C 5.1 °C 1020.0 hPa Calm     48.2% 0.0 mm 148 W/m2
09:14 16.2 °C 5.1 °C 1020.3 hPa Calm     47.7% 0.0 mm 154 W/m2
09:19 16.1 °C 5.1 °C 1020.3 hPa Calm     47.9% 0.0 mm 161 W/m2
09:24 16.1 °C 5.1 °C 1020.0 hPa Calm     48% 0.0 mm 168 W/m2
09:29 16.1 °C 4.8 °C 1020.0 hPa Calm     47.3% 0.0 mm 174 W/m2
09:34 16 °C 4.7 °C 1020.0 hPa Calm     46.9% 0.0 mm 180 W/m2
09:39 16.1 °C 4.1 °C 1020.0 hPa Calm     44.7% 0.0 mm 187 W/m2
09:44 16.2 °C 4.2 °C 1020.0 hPa Calm     44.7% 0.0 mm 195 W/m2
09:49 16.3 °C 4.7 °C 1020.0 hPa Calm   7.9 km/h 46% 0.0 mm 202 W/m2
09:54 16.3 °C 4.5 °C 1020.0 hPa South 0.1 km/h 4 km/h 45.6% 0.0 mm 209 W/m2
09:59 16.3 °C 5.4 °C 1020.0 hPa SE 0.4 km/h 7.9 km/h 48.3% 0.0 mm 216 W/m2
10:04 16.4 °C 5.5 °C 1020.0 hPa SE 0.8 km/h 7.9 km/h 48.2% 0.0 mm 225 W/m2
10:09 16.5 °C 5.4 °C 1020.0 hPa Calm   7.9 km/h 47.8% 0.0 mm 232 W/m2
10:14 16.6 °C 5.7 °C 1020.0 hPa East 1 km/h 7.9 km/h 48.7% 0.0 mm 238 W/m2
10:19 16.6 °C 5.7 °C 1020.0 hPa Calm   4 km/h 48.7% 0.0 mm 245 W/m2
10:24 16.6 °C 6.2 °C 1020.0 hPa SE 1.1 km/h 7.9 km/h 50.4% 0.0 mm 253 W/m2
10:29 16.4 °C 6.1 °C 1020.0 hPa Calm   7.9 km/h 50.4% 0.0 mm 261 W/m2
10:34 16.2 °C 6 °C 1020.0 hPa ESE 3 km/h 12.2 km/h 50.7% 0.0 mm 268 W/m2
10:39 16.3 °C 6.3 °C 1020.0 hPa SSE 1.4 km/h 7.9 km/h 51.6% 0.0 mm 279 W/m2
10:44 16.3 °C 6.4 °C 1020.3 hPa SE 1.6 km/h 12.2 km/h 51.9% 0.0 mm 283 W/m2
10:49 16.3 °C 6.7 °C 1020.0 hPa East 2 km/h 7.9 km/h 53% 0.0 mm 291 W/m2
10:54 16.3 °C 6.9 °C 1020.0 hPa Calm   7.9 km/h 53.9% 0.0 mm 300 W/m2
10:59 16.3 °C 6.3 °C 1020.3 hPa SE 1.1 km/h 7.9 km/h 51.4% 0.0 mm 311 W/m2
11:04 16.4 °C 5.9 °C 1020.0 hPa Calm   4 km/h 49.8% 0.0 mm 319 W/m2
11:09 16.5 °C 5.5 °C 1020.0 hPa East 0.2 km/h 4 km/h 48.3% 0.0 mm 334 W/m2
11:14 16.7 °C 4.8 °C 1020.0 hPa Calm     45.6% 0.0 mm 343 W/m2
11:19 16.8 °C 5.8 °C 1020.0 hPa ENE 1.6 km/h 7.9 km/h 48.2% 0.0 mm 347 W/m2
11:24 16.8 °C 6.1 °C 1020.0 hPa ESE 0.1 km/h 4 km/h 49.6% 0.0 mm 360 W/m2
11:29 16.2 °C 5.4 °C 1020.0 hPa NNE 2.6 km/h 7.9 km/h 48.4% 0.0 mm 363 W/m2
11:34 15.9 °C 5.2 °C 1020.0 hPa East 0.6 km/h 7.9 km/h 49% 0.0 mm 377 W/m2
11:39 16.1 °C 5.2 °C 1019.6 hPa ESE 1 km/h 7.9 km/h 48.3% 0.0 mm 384 W/m2
11:44 16.2 °C 5.3 °C 1019.6 hPa SE 0.8 km/h 7.9 km/h 48.2% 0.0 mm 400 W/m2
11:49 16.4 °C 5.1 °C 1019.6 hPa NE 1.9 km/h 12.2 km/h 47.1% 0.0 mm 407 W/m2
11:54 16.4 °C 5.6 °C 1019.6 hPa ENE 2.7 km/h 12.2 km/h 48.6% 0.0 mm 412 W/m2
11:59 16.3 °C 5.3 °C 1019.6 hPa ENE 0.9 km/h 12.2 km/h 48.1% 0.0 mm 423 W/m2
12:04 16.4 °C 5 °C 1019.6 hPa ENE 3.3 km/h 12.2 km/h 46.8% 0.0 mm 433 W/m2
12:09 16.7 °C 5.6 °C 1019.3 hPa South 1.8 km/h 12.2 km/h 47.9% 0.0 mm 441 W/m2
12:14 17.1 °C 6 °C 1019.3 hPa NE 1.7 km/h 12.2 km/h 48% 0.0 mm 445 W/m2
12:19 17.1 °C 5.7 °C 1019.3 hPa ESE 0.9 km/h 7.9 km/h 47% 0.0 mm 456 W/m2
12:24 17.2 °C 5.5 °C 1019.3 hPa SE 2.8 km/h 12.2 km/h 46% 0.0 mm 459 W/m2
12:29 17.7 °C 5.8 °C 1019.0 hPa South 1.9 km/h 12.2 km/h 45.6% 0.0 mm 461 W/m2
12:34 18.2 °C 6.1 °C 1019.0 hPa ESE 1.9 km/h 12.2 km/h 45% 0.0 mm 461 W/m2
12:39 18.1 °C 6.2 °C 1019.0 hPa SE 1.2 km/h 12.2 km/h 45.5% 0.0 mm 468 W/m2
12:44 18.1 °C 6 °C 1019.0 hPa SE 2.6 km/h 16.3 km/h 45.1% 0.0 mm 468 W/m2
12:49 17.8 °C 5.5 °C 1018.6 hPa ENE 1.1 km/h 16.3 km/h 44.4% 0.0 mm 466 W/m2
12:54 17.5 °C 5.3 °C 1018.6 hPa SE 2 km/h 12.2 km/h 44.9% 0.0 mm 470 W/m2
12:59 17.6 °C 5.2 °C 1018.6 hPa ESE 3.3 km/h 12.2 km/h 44.1% 0.0 mm 468 W/m2
13:04 17.7 °C 5.4 °C 1018.6 hPa SSW 1.6 km/h 12.2 km/h 44.4% 0.0 mm 467 W/m2
13:09 17.8 °C 5.7 °C 1018.3 hPa SSE 3.7 km/h 16.3 km/h 44.8% 0.0 mm 466 W/m2
13:14 18 °C 5.7 °C 1018.3 hPa SE 1.4 km/h 12.2 km/h 44.4% 0.0 mm 467 W/m2
13:19 18 °C 5.6 °C 1018.0 hPa ENE 2 km/h 16.3 km/h 44% 0.0 mm 469 W/m2
13:24 17.9 °C 5.4 °C 1018.0 hPa SE 0.2 km/h 7.9 km/h 43.8% 0.0 mm 475 W/m2
13:29 18.3 °C 5.7 °C 1018.0 hPa SSE 1.5 km/h 7.9 km/h 43.7% 0.0 mm 478 W/m2
13:34 18.6 °C 6.1 °C 1018.0 hPa South 1.8 km/h 7.9 km/h 43.8% 0.0 mm 478 W/m2
13:39 18.7 °C 6.3 °C 1018.0 hPa South 1.9 km/h 7.9 km/h 44.3% 0.0 mm 477 W/m2
13:44 18.7 °C 6 °C 1017.6 hPa SSE 3.1 km/h 12.2 km/h 43.4% 0.0 mm 476 W/m2
13:49 18.8 °C 6 °C 1017.6 hPa SSE 0.6 km/h 7.9 km/h 43% 0.0 mm 479 W/m2
13:54 18.8 °C 6.4 °C 1017.6 hPa South 3.9 km/h 12.2 km/h 44.4% 0.0 mm 480 W/m2
13:59 18.9 °C 6.6 °C 1017.6 hPa SSE 2.6 km/h 12.2 km/h 44.7% 0.0 mm 478 W/m2
14:04 19 °C 6.4 °C 1017.6 hPa ESE 2 km/h 12.2 km/h 43.6% 0.0 mm 479 W/m2
14:09 19.2 °C 6.9 °C 1017.3 hPa SSE 5.4 km/h 12.2 km/h 44.7% 0.0 mm 481 W/m2
14:14 19.2 °C 7.3 °C 1016.9 hPa SSE 3.3 km/h 12.2 km/h 45.9% 0.0 mm 479 W/m2
14:19 19.2 °C 7.1 °C 1016.9 hPa SSE 0.6 km/h 7.9 km/h 45.3% 0.0 mm 481 W/m2
14:24 19.2 °C 7.3 °C 1016.9 hPa South 1.6 km/h 7.9 km/h 46.1% 0.0 mm 483 W/m2
14:29 19.4 °C 7.5 °C 1016.9 hPa SE 4 km/h 12.2 km/h 46% 0.0 mm 483 W/m2
14:34 19.6 °C 7.7 °C 1016.9 hPa SSE 3.2 km/h 12.2 km/h 46.1% 0.0 mm 480 W/m2
14:39 19.6 °C 7.6 °C 1016.9 hPa South 3.3 km/h 16.3 km/h 45.8% 0.0 mm 480 W/m2
14:44 19.6 °C 7.8 °C 1016.9 hPa SSE 2.7 km/h 16.3 km/h 46.4% 0.0 mm 481 W/m2
14:49 19.3 °C 7.5 °C 1016.6 hPa SE 3.5 km/h 16.3 km/h 46.1% 0.0 mm 480 W/m2
14:54 18.5 °C 6.7 °C 1016.6 hPa ENE 2.3 km/h 12.2 km/h 45.9% 0.0 mm 478 W/m2
14:59 18.6 °C 6.5 °C 1016.6 hPa Calm   4 km/h 45.3% 0.0 mm 483 W/m2
15:04 18.8 °C 6.6 °C 1016.3 hPa South 2.8 km/h 16.3 km/h 45.1% 0.0 mm 486 W/m2
15:09 19.1 °C 6.7 °C 1016.3 hPa SSW 2.3 km/h 16.3 km/h 44.4% 0.0 mm 483 W/m2
15:14 20 °C 7.6 °C 1016.3 hPa SSE 5.1 km/h 16.3 km/h 44.4% 0.0 mm 482 W/m2
15:19 20 °C 7.6 °C 1016.3 hPa SE 4.2 km/h 12.2 km/h 44.7% 0.0 mm 478 W/m2
15:24 19.9 °C 7.4 °C 1016.3 hPa ESE 3.7 km/h 16.3 km/h 44.3% 0.0 mm 473 W/m2
15:29 19.8 °C 7.3 °C 1016.3 hPa South 8.2 km/h 16.3 km/h 44.2% 0.0 mm 473 W/m2
15:34 19.4 °C 6.8 °C 1015.9 hPa South 4.4 km/h 16.3 km/h 44% 0.0 mm 470 W/m2
15:39 19.5 °C 6.9 °C 1015.9 hPa SSE 4.1 km/h 16.3 km/h 44% 0.0 mm 471 W/m2
15:44 19.7 °C 6.9 °C 1015.9 hPa South 2.2 km/h 16.3 km/h 43.4% 0.0 mm 471 W/m2
15:49 19.8 °C 6.9 °C 1015.9 hPa South 4.3 km/h 16.3 km/h 43% 0.0 mm 470 W/m2
15:54 20.1 °C 7.1 °C 1015.6 hPa SSE 4.4 km/h 12.2 km/h 43% 0.0 mm 465 W/m2
15:59 20.1 °C 7.1 °C 1015.6 hPa South 3.3 km/h 12.2 km/h 43% 0.0 mm 462 W/m2
16:04 20.1 °C 6.9 °C 1015.6 hPa South 4.4 km/h 16.3 km/h 42.4% 0.0 mm 461 W/m2
16:09 20.1 °C 7 °C 1015.6 hPa SSW 3.6 km/h 16.3 km/h 42.6% 0.0 mm 457 W/m2
16:14 20.2 °C 7.1 °C 1015.2 hPa South 5.9 km/h 12.2 km/h 42.8% 0.0 mm 453 W/m2
16:19 20.1 °C 6.9 °C 1015.2 hPa SSE 5.6 km/h 12.2 km/h 42.3% 0.0 mm 450 W/m2
16:24 20.1 °C 6.9 °C 1015.6 hPa South 7.5 km/h 16.3 km/h 42.5% 0.0 mm 447 W/m2
16:29 20 °C 6.8 °C 1015.2 hPa South 6.5 km/h 16.3 km/h 42.4% 0.0 mm 444 W/m2
16:34 19.9 °C 6.6 °C 1015.2 hPa South 8.3 km/h 16.3 km/h 42.1% 0.0 mm 439 W/m2
16:39 19.8 °C 6.7 °C 1015.2 hPa South 6.1 km/h 20.1 km/h 42.4% 0.0 mm 434 W/m2
16:44 19.8 °C 6.5 °C 1015.2 hPa South 7.3 km/h 16.3 km/h 42% 0.0 mm 430 W/m2
16:49 19.7 °C 6.6 °C 1014.9 hPa South 5.4 km/h 12.2 km/h 42.4% 0.0 mm 425 W/m2
16:54 19.6 °C 6.3 °C 1014.9 hPa South 8.7 km/h 16.3 km/h 42% 0.0 mm 421 W/m2
16:59 19.5 °C 6.2 °C 1014.6 hPa South 10.3 km/h 20.1 km/h 42% 0.0 mm 416 W/m2
17:04 19.4 °C 6.2 °C 1014.9 hPa South 9 km/h 20.1 km/h 42% 0.0 mm 411 W/m2
17:09 19.4 °C 6.2 °C 1014.9 hPa South 7 km/h 20.1 km/h 42% 0.0 mm 406 W/m2
17:12 19.3 °C 5.8 °C 1014.9 hPa South 7.6 km/h 16.3 km/h 41.2% 0.0 mm 402 W/m2
Juneau County Weather
Compliments of Weather Underground - 2 mb